sensor_id;sensor_type;location;lat;lon;timestamp;pressure;altitude;pressure_sealevel;temperature;humidity
11523;BME280;70090;43.208;27.904;2023-08-17T00:00:50;100773.56;;;27.95;82.62
11523;BME280;70090;43.208;27.904;2023-08-17T00:03:17;100770.81;;;27.86;83.05
11523;BME280;70090;43.208;27.904;2023-08-17T00:05:44;100765.63;;;27.85;84.03
11523;BME280;70090;43.208;27.904;2023-08-17T00:08:11;100770.22;;;27.82;83.64
11523;BME280;70090;43.208;27.904;2023-08-17T00:10:38;100768.09;;;27.77;83.92
11523;BME280;70090;43.208;27.904;2023-08-17T00:13:05;100771.69;;;27.78;84.35
11523;BME280;70090;43.208;27.904;2023-08-17T00:15:33;100771.53;;;27.72;84.10
11523;BME280;70090;43.208;27.904;2023-08-17T00:18:00;100770.97;;;27.68;84.53
11523;BME280;70090;43.208;27.904;2023-08-17T00:20:26;100762.19;;;27.66;84.24
11523;BME280;70090;43.208;27.904;2023-08-17T00:22:53;100773.00;;;27.68;83.42
11523;BME280;70090;43.208;27.904;2023-08-17T00:25:20;100774.28;;;27.67;82.79
11523;BME280;70090;43.208;27.904;2023-08-17T00:27:49;100765.59;;;27.70;82.22
11523;BME280;70090;43.208;27.904;2023-08-17T00:30:16;100774.59;;;27.69;81.98
11523;BME280;70090;43.208;27.904;2023-08-17T00:32:44;100772.53;;;27.69;81.60
11523;BME280;70090;43.208;27.904;2023-08-17T00:35:11;100780.03;;;27.72;81.69
11523;BME280;70090;43.208;27.904;2023-08-17T00:37:37;100782.69;;;27.76;80.88
11523;BME280;70090;43.208;27.904;2023-08-17T00:40:05;100781.63;;;27.73;80.44
11523;BME280;70090;43.208;27.904;2023-08-17T00:42:32;100778.78;;;27.73;81.16
11523;BME280;70090;43.208;27.904;2023-08-17T00:44:59;100774.50;;;27.78;80.86
11523;BME280;70090;43.208;27.904;2023-08-17T00:47:27;100780.66;;;27.76;80.75
11523;BME280;70090;43.208;27.904;2023-08-17T00:49:57;100783.97;;;27.75;80.33
11523;BME280;70090;43.208;27.904;2023-08-17T00:52:24;100778.41;;;27.80;79.52
11523;BME280;70090;43.208;27.904;2023-08-17T00:54:51;100790.72;;;27.77;79.39
11523;BME280;70090;43.208;27.904;2023-08-17T00:57:18;100785.06;;;27.77;79.22
11523;BME280;70090;43.208;27.904;2023-08-17T00:59:46;100778.41;;;27.80;79.88
11523;BME280;70090;43.208;27.904;2023-08-17T01:02:13;100777.84;;;27.76;78.73
11523;BME280;70090;43.208;27.904;2023-08-17T01:04:40;100776.84;;;27.79;78.77
11523;BME280;70090;43.208;27.904;2023-08-17T01:07:08;100779.97;;;27.81;78.38
11523;BME280;70090;43.208;27.904;2023-08-17T01:09:35;100769.66;;;27.78;78.98
11523;BME280;70090;43.208;27.904;2023-08-17T01:12:08;100771.00;;;27.83;78.60
11523;BME280;70090;43.208;27.904;2023-08-17T01:14:52;100774.31;;;27.81;78.23
11523;BME280;70090;43.208;27.904;2023-08-17T01:17:26;100772.19;;;27.76;78.39
11523;BME280;70090;43.208;27.904;2023-08-17T01:19:56;100769.97;;;27.71;78.80
11523;BME280;70090;43.208;27.904;2023-08-17T01:22:26;100762.78;;;27.70;78.82
11523;BME280;70090;43.208;27.904;2023-08-17T01:24:59;100760.63;;;27.65;79.58
11523;BME280;70090;43.208;27.904;2023-08-17T01:27:29;100759.09;;;27.64;79.74
11523;BME280;70090;43.208;27.904;2023-08-17T01:29:57;100750.69;;;27.55;81.25
11523;BME280;70090;43.208;27.904;2023-08-17T01:32:27;100751.06;;;27.48;81.81
11523;BME280;70090;43.208;27.904;2023-08-17T01:35:01;100747.34;;;27.42;82.35
11523;BME280;70090;43.208;27.904;2023-08-17T01:37:31;100753.19;;;27.39;83.18
11523;BME280;70090;43.208;27.904;2023-08-17T01:40:02;100744.22;;;27.40;83.14
11523;BME280;70090;43.208;27.904;2023-08-17T01:42:30;100753.66;;;27.37;84.02
11523;BME280;70090;43.208;27.904;2023-08-17T01:44:57;100750.25;;;27.33;84.03
11523;BME280;70090;43.208;27.904;2023-08-17T01:47:24;100751.31;;;27.36;84.27
11523;BME280;70090;43.208;27.904;2023-08-17T01:49:51;100742.84;;;27.36;84.57
11523;BME280;70090;43.208;27.904;2023-08-17T01:52:18;100749.88;;;27.40;84.17
11523;BME280;70090;43.208;27.904;2023-08-17T01:54:44;100750.38;;;27.39;84.94
11523;BME280;70090;43.208;27.904;2023-08-17T01:57:13;100750.66;;;27.41;84.28
11523;BME280;70090;43.208;27.904;2023-08-17T01:59:39;100742.66;;;27.39;83.97
11523;BME280;70090;43.208;27.904;2023-08-17T02:02:06;100743.25;;;27.43;84.11
11523;BME280;70090;43.208;27.904;2023-08-17T02:04:33;100743.75;;;27.42;83.52
11523;BME280;70090;43.208;27.904;2023-08-17T02:07:00;100737.00;;;27.39;82.94
11523;BME280;70090;43.208;27.904;2023-08-17T02:09:45;100737.00;;;27.39;82.63
11523;BME280;70090;43.208;27.904;2023-08-17T02:12:14;100745.19;;;27.37;82.35
11523;BME280;70090;43.208;27.904;2023-08-17T02:14:40;100748.81;;;27.38;82.55
11523;BME280;70090;43.208;27.904;2023-08-17T02:17:07;100748.59;;;27.41;81.86
11523;BME280;70090;43.208;27.904;2023-08-17T02:19:34;100745.00;;;27.41;82.03
11523;BME280;70090;43.208;27.904;2023-08-17T02:22:01;100750.06;;;27.37;81.98
11523;BME280;70090;43.208;27.904;2023-08-17T02:24:28;100735.44;;;27.38;82.22
11523;BME280;70090;43.208;27.904;2023-08-17T02:26:55;100729.50;;;27.36;82.60
11523;BME280;70090;43.208;27.904;2023-08-17T02:29:23;100738.38;;;27.44;82.69
11523;BME280;70090;43.208;27.904;2023-08-17T02:31:50;100734.09;;;27.48;83.40
11523;BME280;70090;43.208;27.904;2023-08-17T02:34:17;100727.88;;;27.44;83.10
11523;BME280;70090;43.208;27.904;2023-08-17T02:36:44;100734.09;;;27.48;83.59
11523;BME280;70090;43.208;27.904;2023-08-17T02:39:10;100738.19;;;27.47;83.56
11523;BME280;70090;43.208;27.904;2023-08-17T02:41:37;100735.72;;;27.40;84.20
11523;BME280;70090;43.208;27.904;2023-08-17T02:44:04;100734.69;;;27.38;84.66
11523;BME280;70090;43.208;27.904;2023-08-17T02:46:33;100743.91;;;27.38;85.18
11523;BME280;70090;43.208;27.904;2023-08-17T02:48:59;100738.44;;;27.35;85.76
11523;BME280;70090;43.208;27.904;2023-08-17T02:51:26;100739.72;;;27.34;86.23
11523;BME280;70090;43.208;27.904;2023-08-17T02:53:53;100742.25;;;27.32;86.56
11523;BME280;70090;43.208;27.904;2023-08-17T02:56:20;100734.84;;;27.34;86.96
11523;BME280;70090;43.208;27.904;2023-08-17T02:58:47;100735.34;;;27.33;87.02
11523;BME280;70090;43.208;27.904;2023-08-17T03:01:13;100734.25;;;27.30;87.65
11523;BME280;70090;43.208;27.904;2023-08-17T03:03:42;100739.50;;;27.23;88.63
11523;BME280;70090;43.208;27.904;2023-08-17T03:06:09;100732.69;;;27.29;88.97
11523;BME280;70090;43.208;27.904;2023-08-17T03:08:36;100739.72;;;27.34;89.04
11523;BME280;70090;43.208;27.904;2023-08-17T03:11:03;100742.06;;;27.35;88.83
11523;BME280;70090;43.208;27.904;2023-08-17T03:13:32;100746.16;;;27.34;88.82
11523;BME280;70090;43.208;27.904;2023-08-17T03:15:59;100741.38;;;27.40;89.61
11523;BME280;70090;43.208;27.904;2023-08-17T03:18:26;100736.72;;;27.37;89.54
11523;BME280;70090;43.208;27.904;2023-08-17T03:20:54;100729.22;;;27.34;89.84
11523;BME280;70090;43.208;27.904;2023-08-17T03:23:21;100737.19;;;27.36;90.14
11523;BME280;70090;43.208;27.904;2023-08-17T03:25:51;100733.97;;;27.28;91.22
11523;BME280;70090;43.208;27.904;2023-08-17T03:28:18;100742.63;;;27.25;91.69
11523;BME280;70090;43.208;27.904;2023-08-17T03:30:45;100734.16;;;27.25;91.67
11523;BME280;70090;43.208;27.904;2023-08-17T03:33:12;100745.03;;;27.17;92.28
11523;BME280;70090;43.208;27.904;2023-08-17T03:35:38;100740.66;;;27.16;92.35
11523;BME280;70090;43.208;27.904;2023-08-17T03:38:07;100743.00;;;27.18;93.00
11523;BME280;70090;43.208;27.904;2023-08-17T03:40:33;100745.03;;;27.17;93.37
11523;BME280;70090;43.208;27.904;2023-08-17T03:43:01;100727.81;;;27.15;92.81
11523;BME280;70090;43.208;27.904;2023-08-17T03:45:29;100748.69;;;27.32;92.25
11523;BME280;70090;43.208;27.904;2023-08-17T03:47:55;100745.56;;;27.30;92.64
11523;BME280;70090;43.208;27.904;2023-08-17T03:50:22;100754.66;;;27.34;92.41
11523;BME280;70090;43.208;27.904;2023-08-17T03:52:49;100753.44;;;27.26;93.78
11523;BME280;70090;43.208;27.904;2023-08-17T03:55:17;100762.50;;;27.30;94.53
11523;BME280;70090;43.208;27.904;2023-08-17T03:57:44;100774.50;;;27.25;94.64
11523;BME280;70090;43.208;27.904;2023-08-17T04:00:11;100767.75;;;27.23;94.99
11523;BME280;70090;43.208;27.904;2023-08-17T04:02:39;100775.75;;;27.24;94.96
11523;BME280;70090;43.208;27.904;2023-08-17T04:05:06;100771.84;;;27.22;95.08
11523;BME280;70090;43.208;27.904;2023-08-17T04:07:33;100785.13;;;27.30;94.66
11523;BME280;70090;43.208;27.904;2023-08-17T04:10:00;100773.44;;;27.37;94.18
11523;BME280;70090;43.208;27.904;2023-08-17T04:12:28;100774.03;;;27.41;94.22
11523;BME280;70090;43.208;27.904;2023-08-17T04:14:55;100778.56;;;27.48;92.82
11523;BME280;70090;43.208;27.904;2023-08-17T04:17:21;100774.84;;;27.56;92.77
11523;BME280;70090;43.208;27.904;2023-08-17T04:19:48;100773.88;;;27.59;91.65
11523;BME280;70090;43.208;27.904;2023-08-17T04:22:15;100772.72;;;27.66;91.94
11523;BME280;70090;43.208;27.904;2023-08-17T04:24:42;100776.75;;;27.74;91.31
11523;BME280;70090;43.208;27.904;2023-08-17T04:27:09;100769.66;;;27.78;91.50
11523;BME280;70090;43.208;27.904;2023-08-17T04:29:38;100785.44;;;27.85;91.39
11523;BME280;70090;43.208;27.904;2023-08-17T04:32:04;100783.50;;;27.91;90.97
11523;BME280;70090;43.208;27.904;2023-08-17T04:34:31;100784.88;;;27.95;90.17
11523;BME280;70090;43.208;27.904;2023-08-17T04:36:58;100771.97;;;27.94;90.08
11523;BME280;70090;43.208;27.904;2023-08-17T04:39:25;100787.28;;;28.02;90.46
11523;BME280;70090;43.208;27.904;2023-08-17T04:41:52;100783.19;;;28.03;90.87
11523;BME280;70090;43.208;27.904;2023-08-17T04:44:18;100783.00;;;28.07;90.97
11523;BME280;70090;43.208;27.904;2023-08-17T04:46:47;100778.41;;;28.09;90.29
11523;BME280;70090;43.208;27.904;2023-08-17T04:49:13;100786.22;;;28.14;90.34
11523;BME280;70090;43.208;27.904;2023-08-17T04:51:40;100781.91;;;28.19;88.38
11523;BME280;70090;43.208;27.904;2023-08-17T04:54:07;100782.09;;;28.30;86.77
11523;BME280;70090;43.208;27.904;2023-08-17T04:56:34;100791.31;;;28.39;86.43
11523;BME280;70090;43.208;27.904;2023-08-17T04:59:01;100789.50;;;28.56;85.64
11523;BME280;70090;43.208;27.904;2023-08-17T05:01:27;100781.44;;;28.69;83.93
11523;BME280;70090;43.208;27.904;2023-08-17T05:03:55;100778.72;;;28.74;82.62
11523;BME280;70090;43.208;27.904;2023-08-17T05:06:22;100780.03;;;28.79;81.88
11523;BME280;70090;43.208;27.904;2023-08-17T05:08:49;100790.19;;;28.85;81.91
11523;BME280;70090;43.208;27.904;2023-08-17T05:11:16;100765.91;;;28.99;81.52
11523;BME280;70090;43.208;27.904;2023-08-17T05:13:43;100769.47;;;29.14;81.40
11523;BME280;70090;43.208;27.904;2023-08-17T05:16:10;100762.66;;;29.26;81.10
11523;BME280;70090;43.208;27.904;2023-08-17T05:18:36;100764.97;;;29.27;80.45
11523;BME280;70090;43.208;27.904;2023-08-17T05:21:05;100771.16;;;29.26;81.42
11523;BME280;70090;43.208;27.904;2023-08-17T05:23:31;100769.47;;;29.34;81.43
11523;BME280;70090;43.208;27.904;2023-08-17T05:25:58;100761.56;;;29.43;81.06
11523;BME280;70090;43.208;27.904;2023-08-17T05:28:26;100784.53;;;29.45;81.20
11523;BME280;70090;43.208;27.904;2023-08-17T05:30:53;100770.56;;;29.42;80.88
11523;BME280;70090;43.208;27.904;2023-08-17T05:33:20;100774.13;;;29.37;80.82
11523;BME280;70090;43.208;27.904;2023-08-17T05:35:48;100771.16;;;29.46;80.86
11523;BME280;70090;43.208;27.904;2023-08-17T05:38:20;100766.75;;;29.45;80.38
11523;BME280;70090;43.208;27.904;2023-08-17T05:40:47;100765.69;;;29.42;80.48
11523;BME280;70090;43.208;27.904;2023-08-17T05:43:14;100767.59;;;29.51;80.34
11523;BME280;70090;43.208;27.904;2023-08-17T05:45:41;100769.00;;;29.61;79.28
11523;BME280;70090;43.208;27.904;2023-08-17T05:48:07;100766.06;;;29.75;78.45
11523;BME280;70090;43.208;27.904;2023-08-17T05:50:34;100769.00;;;29.86;77.65
11523;BME280;70090;43.208;27.904;2023-08-17T05:53:01;100774.63;;;30.06;77.50
11523;BME280;70090;43.208;27.904;2023-08-17T05:55:29;100781.16;;;30.18;76.51
11523;BME280;70090;43.208;27.904;2023-08-17T05:57:56;100777.44;;;30.32;75.77
11523;BME280;70090;43.208;27.904;2023-08-17T06:00:23;100777.47;;;30.37;75.35
11523;BME280;70090;43.208;27.904;2023-08-17T06:02:50;100774.09;;;30.39;74.00
11523;BME280;70090;43.208;27.904;2023-08-17T06:05:17;100773.34;;;30.38;74.34
11523;BME280;70090;43.208;27.904;2023-08-17T06:07:44;100769.44;;;30.36;74.40
11523;BME280;70090;43.208;27.904;2023-08-17T06:10:11;100768.34;;;30.28;74.87
11523;BME280;70090;43.208;27.904;2023-08-17T06:12:40;100768.59;;;30.24;74.30
11523;BME280;70090;43.208;27.904;2023-08-17T06:15:07;100772.75;;;30.29;75.17
11523;BME280;70090;43.208;27.904;2023-08-17T06:17:34;100775.59;;;30.29;75.41
11523;BME280;70090;43.208;27.904;2023-08-17T06:20:01;100769.00;;;30.43;75.08
11523;BME280;70090;43.208;27.904;2023-08-17T06:22:29;100767.25;;;30.51;74.64
11523;BME280;70090;43.208;27.904;2023-08-17T06:24:56;100761.56;;;30.51;74.65
11523;BME280;70090;43.208;27.904;2023-08-17T06:27:22;100764.69;;;30.53;74.23
11523;BME280;70090;43.208;27.904;2023-08-17T06:29:51;100752.53;;;30.52;74.54
11523;BME280;70090;43.208;27.904;2023-08-17T06:32:17;100770.06;;;30.45;75.28
11523;BME280;70090;43.208;27.904;2023-08-17T06:34:44;100781.25;;;30.60;75.63
11523;BME280;70090;43.208;27.904;2023-08-17T06:37:11;100776.72;;;30.73;75.41
11523;BME280;70090;43.208;27.904;2023-08-17T06:39:38;100782.41;;;30.79;74.75
11523;BME280;70090;43.208;27.904;2023-08-17T06:42:05;100767.44;;;30.78;74.30
11523;BME280;70090;43.208;27.904;2023-08-17T06:44:32;100778.03;;;30.78;74.76
11523;BME280;70090;43.208;27.904;2023-08-17T06:47:00;100769.84;;;30.96;74.24
11523;BME280;70090;43.208;27.904;2023-08-17T06:49:27;100771.44;;;31.03;72.83
11523;BME280;70090;43.208;27.904;2023-08-17T06:51:54;100776.91;;;31.12;72.25
11523;BME280;70090;43.208;27.904;2023-08-17T06:54:21;100773.13;;;31.26;72.68
11523;BME280;70090;43.208;27.904;2023-08-17T06:56:48;100766.44;;;31.40;71.49
11523;BME280;70090;43.208;27.904;2023-08-17T06:59:15;100764.94;;;31.55;71.64
11523;BME280;70090;43.208;27.904;2023-08-17T07:01:42;100774.25;;;31.66;70.24
11523;BME280;70090;43.208;27.904;2023-08-17T07:04:10;100773.03;;;31.67;68.82
11523;BME280;70090;43.208;27.904;2023-08-17T07:06:37;100771.72;;;31.68;68.46
11523;BME280;70090;43.208;27.904;2023-08-17T07:09:04;100777.94;;;31.72;68.49
11523;BME280;70090;43.208;27.904;2023-08-17T07:11:31;100786.97;;;31.71;67.20
11523;BME280;70090;43.208;27.904;2023-08-17T07:13:58;100793.97;;;31.70;68.46
11523;BME280;70090;43.208;27.904;2023-08-17T07:16:24;100799.59;;;31.64;67.95
11523;BME280;70090;43.208;27.904;2023-08-17T07:18:51;100799.41;;;31.68;67.97
11523;BME280;70090;43.208;27.904;2023-08-17T07:21:19;100795.81;;;31.73;68.14
11523;BME280;70090;43.208;27.904;2023-08-17T07:23:46;100807.44;;;31.80;69.08
11523;BME280;70090;43.208;27.904;2023-08-17T07:26:13;100804.88;;;31.82;68.28
11523;BME280;70090;43.208;27.904;2023-08-17T07:28:40;100807.72;;;31.93;68.76
11523;BME280;70090;43.208;27.904;2023-08-17T07:31:07;100808.78;;;31.96;68.19
11523;BME280;70090;43.208;27.904;2023-08-17T07:33:34;100810.59;;;32.04;68.38
11523;BME280;70090;43.208;27.904;2023-08-17T07:36:00;100808.25;;;32.14;67.47
11523;BME280;70090;43.208;27.904;2023-08-17T07:38:29;100812.41;;;32.18;67.32
11523;BME280;70090;43.208;27.904;2023-08-17T07:40:55;100812.19;;;32.33;67.01
11523;BME280;70090;43.208;27.904;2023-08-17T07:43:22;100815.81;;;32.22;65.09
11523;BME280;70090;43.208;27.904;2023-08-17T07:45:53;100816.81;;;32.19;66.37
11523;BME280;70090;43.208;27.904;2023-08-17T07:48:20;100816.03;;;32.19;66.64
11523;BME280;70090;43.208;27.904;2023-08-17T07:50:48;100819.16;;;32.26;66.02
11523;BME280;70090;43.208;27.904;2023-08-17T07:53:15;100810.63;;;32.26;66.40
11523;BME280;70090;43.208;27.904;2023-08-17T07:55:44;100812.97;;;32.39;65.69
11523;BME280;70090;43.208;27.904;2023-08-17T07:58:10;100814.50;;;32.45;65.33
11523;BME280;70090;43.208;27.904;2023-08-17T08:00:37;100806.22;;;32.53;64.90
11523;BME280;70090;43.208;27.904;2023-08-17T08:03:04;100811.66;;;32.56;63.88
11523;BME280;70090;43.208;27.904;2023-08-17T08:05:31;100809.28;;;32.66;63.88
11523;BME280;70090;43.208;27.904;2023-08-17T08:07:58;100807.50;;;32.74;63.09
11523;BME280;70090;43.208;27.904;2023-08-17T08:10:25;100812.41;;;32.79;62.76
11523;BME280;70090;43.208;27.904;2023-08-17T08:12:54;100806.41;;;32.93;62.07
11523;BME280;70090;43.208;27.904;2023-08-17T08:15:21;100808.69;;;33.11;61.48
11523;BME280;70090;43.208;27.904;2023-08-17T08:17:48;100808.16;;;33.18;60.61
11523;BME280;70090;43.208;27.904;2023-08-17T08:20:15;100807.91;;;33.27;60.21
11523;BME280;70090;43.208;27.904;2023-08-17T08:22:42;100815.66;;;33.21;59.77
11523;BME280;70090;43.208;27.904;2023-08-17T08:25:09;100808.94;;;33.13;57.88
11523;BME280;70090;43.208;27.904;2023-08-17T08:27:36;100816.97;;;33.15;59.14
11523;BME280;70090;43.208;27.904;2023-08-17T08:30:06;100807.94;;;33.05;59.34
11523;BME280;70090;43.208;27.904;2023-08-17T08:32:33;100806.13;;;33.08;59.52
11523;BME280;70090;43.208;27.904;2023-08-17T08:35:01;100808.69;;;33.17;58.87
11523;BME280;70090;43.208;27.904;2023-08-17T08:37:28;100811.75;;;33.30;58.99
11523;BME280;70090;43.208;27.904;2023-08-17T08:39:55;100810.72;;;33.33;58.45
11523;BME280;70090;43.208;27.904;2023-08-17T08:42:22;100804.50;;;33.29;57.90
11523;BME280;70090;43.208;27.904;2023-08-17T08:44:50;100807.91;;;33.27;57.92
11523;BME280;70090;43.208;27.904;2023-08-17T08:47:18;100803.50;;;33.10;57.74
11523;BME280;70090;43.208;27.904;2023-08-17T08:49:50;100805.56;;;33.15;57.94
11523;BME280;70090;43.208;27.904;2023-08-17T08:52:22;100808.69;;;33.17;56.33
11523;BME280;70090;43.208;27.904;2023-08-17T08:54:50;100802.72;;;33.15;56.94
11523;BME280;70090;43.208;27.904;2023-08-17T08:57:21;100797.00;;;33.20;57.04
11523;BME280;70090;43.208;27.904;2023-08-17T08:59:48;100799.84;;;33.31;57.21
11523;BME280;70090;43.208;27.904;2023-08-17T09:02:17;100803.72;;;33.34;57.52
11523;BME280;70090;43.208;27.904;2023-08-17T09:04:44;100805.47;;;33.48;56.12
11523;BME280;70090;43.208;27.904;2023-08-17T09:07:12;100797.88;;;33.61;54.96
11523;BME280;70090;43.208;27.904;2023-08-17T09:09:39;100807.38;;;33.80;54.31
11523;BME280;70090;43.208;27.904;2023-08-17T09:12:07;100800.63;;;33.83;52.73
11523;BME280;70090;43.208;27.904;2023-08-17T09:14:35;100813.75;;;33.97;53.12
11523;BME280;70090;43.208;27.904;2023-08-17T09:17:03;100809.22;;;34.13;52.58
11523;BME280;70090;43.208;27.904;2023-08-17T09:19:32;100808.59;;;34.31;51.76
11523;BME280;70090;43.208;27.904;2023-08-17T09:22:00;100807.53;;;34.34;49.90
11523;BME280;70090;43.208;27.904;2023-08-17T09:24:33;100814.88;;;34.18;49.97
11523;BME280;70090;43.208;27.904;2023-08-17T09:27:00;100812.88;;;34.13;50.05
11523;BME280;70090;43.208;27.904;2023-08-17T09:29:27;100809.41;;;34.20;50.51
11523;BME280;70090;43.208;27.904;2023-08-17T09:31:57;100823.25;;;34.11;50.46
11523;BME280;70090;43.208;27.904;2023-08-17T09:34:24;100807.47;;;34.04;50.67
11523;BME280;70090;43.208;27.904;2023-08-17T09:36:52;100822.75;;;34.07;49.88
11523;BME280;70090;43.208;27.904;2023-08-17T09:39:19;100794.47;;;34.09;49.63
11523;BME280;70090;43.208;27.904;2023-08-17T09:41:46;100816.63;;;34.32;49.84
11523;BME280;70090;43.208;27.904;2023-08-17T09:44:13;100813.22;;;34.34;48.34
11523;BME280;70090;43.208;27.904;2023-08-17T09:46:42;100807.94;;;34.43;48.37
11523;BME280;70090;43.208;27.904;2023-08-17T09:49:09;100825.75;;;34.31;49.49
11523;BME280;70090;43.208;27.904;2023-08-17T09:51:36;100818.47;;;34.30;48.37
11523;BME280;70090;43.208;27.904;2023-08-17T09:54:04;100824.84;;;34.41;48.54
11523;BME280;70090;43.208;27.904;2023-08-17T09:56:31;100815.91;;;34.26;47.43
11523;BME280;70090;43.208;27.904;2023-08-17T09:58:58;100807.66;;;34.12;49.00
11523;BME280;70090;43.208;27.904;2023-08-17T10:01:27;100813.47;;;34.01;48.69
11523;BME280;70090;43.208;27.904;2023-08-17T10:03:55;100812.25;;;34.26;49.53
11523;BME280;70090;43.208;27.904;2023-08-17T10:06:24;100810.22;;;34.50;49.82
11523;BME280;70090;43.208;27.904;2023-08-17T10:08:54;100806.75;;;34.62;47.87
11523;BME280;70090;43.208;27.904;2023-08-17T10:11:23;100813.56;;;34.83;47.72
11523;BME280;70090;43.208;27.904;2023-08-17T10:13:53;100807.16;;;34.96;47.99
11523;BME280;70090;43.208;27.904;2023-08-17T10:16:25;100800.19;;;35.15;48.35
11523;BME280;70090;43.208;27.904;2023-08-17T10:18:55;100807.97;;;35.39;45.59
11523;BME280;70090;43.208;27.904;2023-08-17T10:21:28;100808.22;;;35.59;47.58
11523;BME280;70090;43.208;27.904;2023-08-17T10:23:56;100803.84;;;35.77;46.53
11523;BME280;70090;43.208;27.904;2023-08-17T10:26:25;100818.00;;;35.88;47.05
11523;BME280;70090;43.208;27.904;2023-08-17T10:28:52;100807.47;;;35.96;46.04
11523;BME280;70090;43.208;27.904;2023-08-17T10:31:20;100812.88;;;35.81;47.00
11523;BME280;70090;43.208;27.904;2023-08-17T10:33:47;100804.22;;;35.68;48.18
11523;BME280;70090;43.208;27.904;2023-08-17T10:36:15;100806.13;;;35.60;48.05
11523;BME280;70090;43.208;27.904;2023-08-17T10:38:42;100805.81;;;35.63;47.58
11523;BME280;70090;43.208;27.904;2023-08-17T10:41:11;100805.31;;;35.65;47.83
11523;BME280;70090;43.208;27.904;2023-08-17T10:43:55;100803.25;;;35.60;48.20
11523;BME280;70090;43.208;27.904;2023-08-17T10:46:32;100803.25;;;35.60;48.90
11523;BME280;70090;43.208;27.904;2023-08-17T10:49:02;100799.88;;;35.61;49.33
11523;BME280;70090;43.208;27.904;2023-08-17T10:51:29;100801.63;;;35.46;49.56
11523;BME280;70090;43.208;27.904;2023-08-17T10:53:58;100800.94;;;35.40;49.97
11523;BME280;70090;43.208;27.904;2023-08-17T10:56:27;100795.38;;;35.05;50.86
11523;BME280;70090;43.208;27.904;2023-08-17T10:58:59;100803.13;;;35.10;51.12
11523;BME280;70090;43.208;27.904;2023-08-17T11:01:36;100797.06;;;35.19;49.98
11523;BME280;70090;43.208;27.904;2023-08-17T11:04:10;100793.34;;;35.24;50.15
11523;BME280;70090;43.208;27.904;2023-08-17T11:06:38;100789.19;;;35.01;50.91
11523;BME280;70090;43.208;27.904;2023-08-17T11:09:07;100781.38;;;34.77;51.76
11523;BME280;70090;43.208;27.904;2023-08-17T11:11:34;100783.41;;;34.53;52.48
11523;BME280;70090;43.208;27.904;2023-08-17T11:14:03;100783.53;;;34.42;52.54
11523;BME280;70090;43.208;27.904;2023-08-17T11:16:30;100791.25;;;34.53;53.62
11523;BME280;70090;43.208;27.904;2023-08-17T11:18:56;100787.72;;;34.65;52.77
11523;BME280;70090;43.208;27.904;2023-08-17T11:21:25;100791.06;;;34.69;52.81
11523;BME280;70090;43.208;27.904;2023-08-17T11:23:55;100781.53;;;34.61;53.23
11523;BME280;70090;43.208;27.904;2023-08-17T11:26:22;100799.97;;;34.36;53.97
11523;BME280;70090;43.208;27.904;2023-08-17T11:28:49;100780.38;;;34.16;54.33
11523;BME280;70090;43.208;27.904;2023-08-17T11:31:17;100793.84;;;34.21;54.57
11523;BME280;70090;43.208;27.904;2023-08-17T11:33:44;100789.09;;;34.29;55.61
11523;BME280;70090;43.208;27.904;2023-08-17T11:36:12;100782.69;;;34.23;55.13
11523;BME280;70090;43.208;27.904;2023-08-17T11:38:40;100792.19;;;34.31;55.54
11523;BME280;70090;43.208;27.904;2023-08-17T11:41:07;100801.63;;;34.26;56.05
11523;BME280;70090;43.208;27.904;2023-08-17T11:43:34;100791.91;;;34.35;54.78
11523;BME280;70090;43.208;27.904;2023-08-17T11:46:02;100788.44;;;34.47;54.72
11523;BME280;70090;43.208;27.904;2023-08-17T11:48:30;100789.53;;;34.39;55.08
11523;BME280;70090;43.208;27.904;2023-08-17T11:50:57;100779.28;;;34.19;54.72
11523;BME280;70090;43.208;27.904;2023-08-17T11:53:24;100793.03;;;34.26;56.16
11523;BME280;70090;43.208;27.904;2023-08-17T11:55:51;100789.47;;;34.44;55.63
11523;BME280;70090;43.208;27.904;2023-08-17T11:58:18;100786.09;;;34.46;54.50
11523;BME280;70090;43.208;27.904;2023-08-17T12:00:45;100785.47;;;34.58;54.53
11523;BME280;70090;43.208;27.904;2023-08-17T12:03:15;100780.28;;;34.56;54.52
11523;BME280;70090;43.208;27.904;2023-08-17T12:05:44;100774.47;;;34.38;55.07
11523;BME280;70090;43.208;27.904;2023-08-17T12:08:13;100780.66;;;34.42;54.68
11523;BME280;70090;43.208;27.904;2023-08-17T12:10:40;100779.19;;;34.59;55.19
11523;BME280;70090;43.208;27.904;2023-08-17T12:13:11;100778.22;;;34.81;54.52
11523;BME280;70090;43.208;27.904;2023-08-17T12:15:38;100780.38;;;34.99;53.98
11523;BME280;70090;43.208;27.904;2023-08-17T12:18:05;100774.50;;;35.10;53.41
11523;BME280;70090;43.208;27.904;2023-08-17T12:20:33;100772.31;;;35.40;52.95
11523;BME280;70090;43.208;27.904;2023-08-17T12:23:03;100774.34;;;35.45;51.62
11523;BME280;70090;43.208;27.904;2023-08-17T12:25:30;100786.56;;;35.45;51.92
11523;BME280;70090;43.208;27.904;2023-08-17T12:27:58;100781.84;;;35.48;51.20
11523;BME280;70090;43.208;27.904;2023-08-17T12:30:27;100784.53;;;35.59;51.70
11523;BME280;70090;43.208;27.904;2023-08-17T12:32:55;100784.72;;;35.85;51.22
11523;BME280;70090;43.208;27.904;2023-08-17T12:35:21;100784.00;;;36.16;49.84
11523;BME280;70090;43.208;27.904;2023-08-17T12:37:50;100784.81;;;36.11;49.12
11523;BME280;70090;43.208;27.904;2023-08-17T12:40:18;100790.59;;;36.24;49.15
11523;BME280;70090;43.208;27.904;2023-08-17T12:42:45;100783.78;;;36.58;48.57